createdAt,value
2019-03-22T00:01:11.891Z,2.60
2019-03-22T00:03:41.274Z,3.53
2019-03-22T00:06:10.713Z,3.00
2019-03-22T00:08:40.078Z,4.50
2019-03-22T00:11:09.453Z,3.07
2019-03-22T00:13:38.831Z,2.67
2019-03-22T00:16:08.190Z,3.47
2019-03-22T00:18:37.600Z,3.20
2019-03-22T00:21:07.105Z,2.83
2019-03-22T00:23:38.192Z,3.13
2019-03-22T00:26:07.551Z,4.37
2019-03-22T00:28:37.082Z,3.17
2019-03-22T00:31:06.511Z,3.40
2019-03-22T00:33:35.859Z,4.10
2019-03-22T00:36:05.312Z,5.73
2019-03-22T00:38:34.728Z,5.57
2019-03-22T00:41:04.142Z,5.57
2019-03-22T00:43:33.509Z,3.63
2019-03-22T00:46:02.893Z,3.60
2019-03-22T00:48:32.265Z,5.27
2019-03-22T00:51:01.631Z,4.90
2019-03-22T00:53:30.996Z,3.70
2019-03-22T00:56:00.372Z,3.10
2019-03-22T00:58:29.735Z,3.90
2019-03-22T01:00:59.109Z,4.43
2019-03-22T01:03:28.541Z,3.77
2019-03-22T01:05:58.027Z,4.27
2019-03-22T01:08:27.431Z,10.20
2019-03-22T01:10:56.935Z,5.10
2019-03-22T01:13:26.390Z,4.57
2019-03-22T01:15:55.749Z,4.60
2019-03-22T01:18:25.113Z,7.87
2019-03-22T01:20:54.501Z,4.93
2019-03-22T01:23:23.855Z,5.50
2019-03-22T01:25:53.303Z,6.27
2019-03-22T01:28:22.740Z,6.80
2019-03-22T01:30:52.097Z,6.47
2019-03-22T01:33:21.490Z,6.13
2019-03-22T01:35:50.928Z,7.67
2019-03-22T01:38:20.322Z,6.77
2019-03-22T01:40:49.694Z,6.27
2019-03-22T01:43:18.982Z,7.30
2019-03-22T01:45:48.363Z,6.87
2019-03-22T01:48:17.734Z,7.13
2019-03-22T01:50:47.121Z,7.80
2019-03-22T01:53:16.487Z,7.20
2019-03-22T01:55:45.869Z,5.43
2019-03-22T01:58:15.360Z,5.80
2019-03-22T02:00:44.818Z,5.30
2019-03-22T02:03:14.111Z,4.73
2019-03-22T02:05:43.825Z,5.33
2019-03-22T02:08:13.136Z,3.83
2019-03-22T02:10:42.499Z,5.50
2019-03-22T02:13:11.892Z,3.73
2019-03-22T02:15:41.260Z,5.20
2019-03-22T02:18:10.657Z,4.97
2019-03-22T02:20:40.074Z,5.10
2019-03-22T02:23:09.533Z,4.87
2019-03-22T02:25:38.890Z,3.63
2019-03-22T02:28:08.251Z,6.50
2019-03-22T02:30:37.648Z,4.50
2019-03-22T02:33:07.015Z,4.10
2019-03-22T02:35:36.388Z,5.37
2019-03-22T02:38:05.747Z,4.90
2019-03-22T02:40:35.163Z,4.87
2019-03-22T02:43:04.633Z,5.10
2019-03-22T02:45:34.094Z,5.73
2019-03-22T02:48:03.452Z,4.27
2019-03-22T02:50:34.460Z,4.43
2019-03-22T02:53:03.729Z,5.40
2019-03-22T02:55:33.121Z,4.70
2019-03-22T02:58:02.562Z,4.33
2019-03-22T03:00:31.930Z,5.57
2019-03-22T03:03:01.361Z,5.00
2019-03-22T03:05:30.741Z,3.80
2019-03-22T03:08:00.120Z,3.83
2019-03-22T03:10:29.580Z,3.40
2019-03-22T03:12:59.012Z,3.83
2019-03-22T03:15:28.383Z,3.90
2019-03-22T03:17:57.743Z,3.50
2019-03-22T03:20:27.119Z,4.33
2019-03-22T03:22:56.501Z,5.10
2019-03-22T03:25:25.891Z,5.83
2019-03-22T03:27:55.243Z,5.20
2019-03-22T03:30:24.632Z,4.37
2019-03-22T03:32:54.030Z,3.83
2019-03-22T03:35:23.486Z,4.47
2019-03-22T03:37:52.863Z,3.60
2019-03-22T03:40:22.242Z,4.03
2019-03-22T03:42:51.599Z,3.73
2019-03-22T03:45:29.820Z,4.00
2019-03-22T03:48:00.730Z,4.43
2019-03-22T03:50:30.243Z,3.50
2019-03-22T03:52:59.616Z,4.20
2019-03-22T03:55:29.424Z,3.73
2019-03-22T03:57:58.805Z,4.33
2019-03-22T04:00:28.242Z,5.10
2019-03-22T04:02:57.680Z,5.17
2019-03-22T04:05:27.130Z,3.97
2019-03-22T04:07:56.485Z,4.93
2019-03-22T04:10:27.567Z,4.53
2019-03-22T04:12:56.936Z,4.97
2019-03-22T04:15:26.387Z,4.47
2019-03-22T04:17:55.815Z,4.67
2019-03-22T04:20:25.205Z,5.13
2019-03-22T04:22:54.562Z,4.93
2019-03-22T04:25:23.938Z,6.17
2019-03-22T04:27:53.386Z,8.93
2019-03-22T04:30:22.830Z,8.20
2019-03-22T04:32:52.207Z,6.60
2019-03-22T04:35:23.116Z,7.20
2019-03-22T04:37:52.478Z,6.60
2019-03-22T04:40:25.050Z,8.00
2019-03-22T04:42:54.563Z,18.77
2019-03-22T04:45:26.380Z,7.10
2019-03-22T04:47:58.804Z,6.07
2019-03-22T04:50:30.929Z,6.33
2019-03-22T04:53:00.830Z,6.17
2019-03-22T04:55:32.899Z,6.43
2019-03-22T04:58:03.769Z,7.03
2019-03-22T05:00:33.599Z,6.97
2019-03-22T05:03:04.041Z,10.00
2019-03-22T05:05:33.520Z,12.10
2019-03-22T05:08:04.008Z,6.50
2019-03-22T05:10:36.766Z,9.83
2019-03-22T05:13:08.968Z,24.47
2019-03-22T05:15:38.892Z,21.97
2019-03-22T05:18:09.091Z,13.43
2019-03-22T05:20:41.030Z,12.90
2019-03-22T05:23:12.399Z,10.97
2019-03-22T05:25:42.220Z,8.83
2019-03-22T05:28:12.931Z,8.27
2019-03-22T05:31:04.822Z,7.30
2019-03-22T05:33:34.183Z,9.27
2019-03-22T05:36:03.496Z,9.30
2019-03-22T05:38:32.930Z,8.20
2019-03-22T05:41:02.294Z,15.23
2019-03-22T05:43:31.795Z,13.33
2019-03-22T05:46:01.201Z,10.93
2019-03-22T05:48:30.582Z,8.87
2019-03-22T05:50:59.968Z,9.70
2019-03-22T05:53:29.425Z,7.93
2019-03-22T05:55:58.877Z,6.83
2019-03-22T05:58:28.272Z,6.87
2019-03-22T06:00:57.642Z,7.50
2019-03-22T06:03:27.123Z,11.20
2019-03-22T06:05:56.515Z,11.53
2019-03-22T06:08:25.970Z,11.23
2019-03-22T06:10:55.362Z,10.20
2019-03-22T06:13:24.739Z,12.50
2019-03-22T06:15:58.292Z,12.60
2019-03-22T06:18:27.679Z,11.90
2019-03-22T06:20:57.103Z,12.47
2019-03-22T06:23:26.539Z,11.10
2019-03-22T06:25:55.910Z,8.33
2019-03-22T06:28:25.287Z,7.73
2019-03-22T06:30:54.645Z,9.30
2019-03-22T06:33:24.040Z,9.23
2019-03-22T06:35:53.575Z,10.77
2019-03-22T06:38:22.974Z,10.30
2019-03-22T06:40:52.424Z,13.73
2019-03-22T06:43:21.819Z,10.77
2019-03-22T06:45:51.180Z,10.73
2019-03-22T06:48:20.622Z,10.07
2019-03-22T06:50:50.041Z,9.83
2019-03-22T06:53:19.433Z,10.00
2019-03-22T06:55:50.333Z,9.70
2019-03-22T06:58:19.732Z,11.00
2019-03-22T07:00:49.107Z,10.93
2019-03-22T07:03:18.501Z,10.37
2019-03-22T07:05:48.057Z,10.80
2019-03-22T07:08:17.457Z,11.20
2019-03-22T07:10:46.832Z,10.87
2019-03-22T07:13:16.232Z,11.90
2019-03-22T07:15:45.695Z,11.73
2019-03-22T07:18:15.149Z,12.93
2019-03-22T07:20:44.510Z,10.07
2019-03-22T07:23:13.929Z,9.60
2019-03-22T07:25:43.363Z,10.07
2019-03-22T07:28:12.820Z,8.87
2019-03-22T07:30:42.181Z,8.33
2019-03-22T07:33:11.574Z,8.30
2019-03-22T07:35:40.972Z,7.90
2019-03-22T07:38:10.448Z,9.70
2019-03-22T07:40:39.868Z,9.20
2019-03-22T07:43:09.240Z,8.03
2019-03-22T07:45:38.624Z,8.37
2019-03-22T07:48:08.121Z,7.50
2019-03-22T07:50:37.588Z,6.20
2019-03-22T07:53:06.992Z,5.33
2019-03-22T07:55:36.347Z,5.20
2019-03-22T07:58:05.748Z,4.80
2019-03-22T08:00:35.114Z,6.10
2019-03-22T08:03:04.659Z,4.63
2019-03-22T08:05:34.188Z,6.37
2019-03-22T08:08:03.564Z,5.70
2019-03-22T08:10:32.963Z,5.40
2019-03-22T08:13:02.363Z,5.63
2019-03-22T08:15:32.133Z,6.10
2019-03-22T08:18:01.567Z,5.33
2019-03-22T08:20:31.085Z,5.20
2019-03-22T08:23:00.565Z,4.73
2019-03-22T08:25:32.610Z,5.60
2019-03-22T08:28:02.159Z,5.63
2019-03-22T08:30:42.397Z,6.70
2019-03-22T08:33:02.706Z,5.60
2019-03-22T08:35:32.231Z,6.47
2019-03-22T08:38:01.693Z,7.10
2019-03-22T08:40:31.126Z,7.37
2019-03-22T08:43:02.214Z,6.63
2019-03-22T08:45:31.647Z,8.40
2019-03-22T08:48:01.023Z,7.00
2019-03-22T08:50:32.047Z,7.50
2019-03-22T08:53:01.567Z,7.97
2019-03-22T08:55:30.964Z,7.83
2019-03-22T08:58:00.385Z,7.93
2019-03-22T09:00:39.272Z,8.50
2019-03-22T09:03:00.955Z,8.13
2019-03-22T09:05:30.367Z,8.17
2019-03-22T09:07:59.848Z,8.47
2019-03-22T09:10:29.233Z,8.50
2019-03-22T09:12:58.664Z,9.10
2019-03-22T09:15:40.274Z,8.87
2019-03-22T09:17:59.215Z,9.30
2019-03-22T09:20:28.580Z,9.83
2019-03-22T09:22:57.988Z,9.40
2019-03-22T09:25:27.393Z,9.13
2019-03-22T09:27:56.822Z,8.97
2019-03-22T09:30:26.286Z,10.37
2019-03-22T09:32:55.813Z,9.20
2019-03-22T09:35:25.275Z,10.20
2019-03-22T09:37:54.716Z,10.00
2019-03-22T09:40:24.106Z,9.70
2019-03-22T09:42:53.523Z,10.17
2019-03-22T09:45:22.961Z,10.33
2019-03-22T09:47:52.453Z,10.03
2019-03-22T09:50:21.983Z,11.20
2019-03-22T09:52:51.393Z,10.37
2019-03-22T09:55:20.773Z,11.00
2019-03-22T09:57:50.113Z,10.90
2019-03-22T10:00:30.515Z,9.93
2019-03-22T10:03:00.399Z,10.47
2019-03-22T10:05:29.992Z,10.37
2019-03-22T10:07:59.371Z,10.83
2019-03-22T10:10:28.826Z,10.40
2019-03-22T10:12:58.277Z,9.80
2019-03-22T10:15:27.869Z,11.07
2019-03-22T10:17:57.419Z,10.90
2019-03-22T10:20:26.888Z,9.90
2019-03-22T10:22:56.288Z,10.50
2019-03-22T10:25:25.795Z,9.80
2019-03-22T10:27:55.265Z,10.93
2019-03-22T10:30:24.729Z,10.33
2019-03-22T10:32:54.112Z,9.43
2019-03-22T10:35:26.301Z,10.40
2019-03-22T10:38:00.365Z,10.33
2019-03-22T10:40:25.739Z,10.13
2019-03-22T10:42:55.236Z,10.80
2019-03-22T10:45:24.791Z,10.63
2019-03-22T10:47:54.262Z,10.80
2019-03-22T10:50:23.693Z,10.40
2019-03-22T10:52:53.192Z,10.23
2019-03-22T10:55:29.844Z,10.43
2019-03-22T10:57:55.474Z,10.87
2019-03-22T11:00:24.784Z,10.97
2019-03-22T11:02:54.199Z,10.77
2019-03-22T11:05:23.645Z,11.23
2019-03-22T11:07:53.056Z,11.33
2019-03-22T11:10:22.380Z,10.57
2019-03-22T11:12:51.753Z,11.43
2019-03-22T11:15:21.145Z,11.53
2019-03-22T11:17:50.481Z,12.17
2019-03-22T11:20:20.018Z,12.33
2019-03-22T11:22:49.427Z,10.87
2019-03-22T11:25:18.806Z,11.50
2019-03-22T11:27:48.212Z,10.93
2019-03-22T11:30:18.958Z,12.13
2019-03-22T11:32:48.382Z,11.57
2019-03-22T11:35:17.896Z,12.27
2019-03-22T11:37:47.280Z,12.07
2019-03-22T11:40:17.425Z,11.97
2019-03-22T11:42:47.613Z,11.57
2019-03-22T11:45:24.625Z,11.53
2019-03-22T11:47:54.247Z,11.13
2019-03-22T11:50:24.653Z,12.30
2019-03-22T11:52:54.156Z,12.70
2019-03-22T11:55:23.491Z,11.18
2019-03-22T11:57:52.966Z,11.22
2019-03-22T12:00:26.081Z,11.25
2019-03-22T12:02:56.067Z,12.05
2019-03-22T12:05:26.134Z,12.18
2019-03-22T12:07:55.579Z,11.75
2019-03-22T12:10:28.446Z,12.45
2019-03-22T12:13:36.909Z,12.10
2019-03-22T12:16:06.955Z,11.60
2019-03-22T12:21:39.755Z,12.30
2019-03-22T12:24:09.185Z,12.63
2019-03-22T12:26:38.664Z,12.15
2019-03-22T12:29:08.769Z,12.03
2019-03-22T12:31:38.741Z,13.10
2019-03-22T12:34:08.821Z,12.88
2019-03-22T12:36:38.885Z,13.48
2019-03-22T12:39:09.110Z,13.65
2019-03-22T12:41:39.109Z,15.95
2019-03-22T12:44:09.440Z,16.30
2019-03-22T12:46:39.476Z,15.30
2019-03-22T12:49:09.554Z,14.05
2019-03-22T12:51:39.543Z,13.45
2019-03-22T12:54:09.516Z,12.65
2019-03-22T12:56:39.574Z,12.05
2019-03-22T12:59:09.554Z,11.63
2019-03-22T13:01:39.695Z,11.55
2019-03-22T13:04:09.687Z,11.10
2019-03-22T13:06:39.659Z,11.38
2019-03-22T13:09:10.013Z,11.12
2019-03-22T13:11:40.071Z,11.88
2019-03-22T13:14:10.048Z,11.30
2019-03-22T13:16:40.033Z,12.00
2019-03-22T13:19:10.008Z,12.28
2019-03-22T13:21:39.982Z,11.18
2019-03-22T13:24:10.128Z,12.50
2019-03-22T13:26:40.140Z,11.40
2019-03-22T13:29:10.226Z,12.33
2019-03-22T13:31:40.208Z,11.75
2019-03-22T13:34:10.190Z,10.82
2019-03-22T13:36:40.257Z,10.58
2019-03-22T13:39:15.505Z,11.55
2019-03-22T13:41:45.501Z,12.18
2019-03-22T13:44:15.468Z,12.05
2019-03-22T13:46:45.510Z,12.40
2019-03-22T13:49:15.504Z,13.18
2019-03-22T13:51:45.546Z,13.78
2019-03-22T13:54:15.590Z,13.38
2019-03-22T13:56:45.660Z,13.93
2019-03-22T13:59:15.638Z,14.38
2019-03-22T14:01:45.629Z,13.65
2019-03-22T14:04:15.611Z,14.73
2019-03-22T14:06:45.624Z,14.25
2019-03-22T14:09:17.243Z,14.58
2019-03-22T14:11:47.243Z,15.00
2019-03-22T14:14:19.010Z,14.75
2019-03-22T14:16:49.019Z,14.43
2019-03-22T14:19:19.094Z,15.03
2019-03-22T14:21:49.087Z,14.30
2019-03-22T14:24:21.770Z,14.35
2019-03-22T14:26:51.822Z,16.42
2019-03-22T14:29:21.789Z,13.95
2019-03-22T14:31:51.793Z,13.75
2019-03-22T14:34:21.759Z,14.47
2019-03-22T14:36:51.755Z,15.28
2019-03-22T14:39:21.716Z,14.18
2019-03-22T14:41:51.716Z,15.23
2019-03-22T14:44:25.551Z,13.22
2019-03-22T14:46:53.388Z,12.98
2019-03-22T14:49:23.429Z,13.00
2019-03-22T14:51:53.490Z,13.70
2019-03-22T14:54:23.490Z,14.03
2019-03-22T14:56:53.466Z,14.28
2019-03-22T14:59:23.445Z,14.85
2019-03-22T15:01:53.355Z,16.30
2019-03-22T15:04:23.342Z,13.70
2019-03-22T15:06:53.415Z,18.92
2019-03-22T15:09:23.408Z,15.38
2019-03-22T15:11:53.405Z,13.78
2019-03-22T15:14:30.837Z,14.10
2019-03-22T15:17:20.292Z,13.55
2019-03-22T15:20:07.916Z,13.68
2019-03-22T15:22:42.485Z,10.85
2019-03-22T15:25:23.350Z,13.35
2019-03-22T15:27:54.443Z,10.58
2019-03-22T15:30:26.154Z,12.40
2019-03-22T15:33:09.135Z,15.93
2019-03-22T15:35:57.183Z,12.75
2019-03-22T15:38:37.343Z,15.38
2019-03-22T15:41:06.893Z,16.50
2019-03-22T15:43:36.301Z,11.77
2019-03-22T15:46:05.868Z,9.43
2019-03-22T15:48:35.267Z,10.03
2019-03-22T15:51:05.332Z,11.57
2019-03-22T15:53:35.300Z,9.70
2019-03-22T15:56:05.400Z,9.95
2019-03-22T15:58:37.023Z,9.00
2019-03-22T16:01:06.640Z,9.37
2019-03-22T16:03:44.077Z,8.55
2019-03-22T16:06:08.319Z,9.23
2019-03-22T16:08:38.289Z,15.48
2019-03-22T16:11:07.690Z,9.88
2019-03-22T16:13:37.105Z,15.32
2019-03-22T16:16:13.953Z,8.98
2019-03-22T16:18:43.338Z,9.73
2019-03-22T16:21:13.352Z,9.35
2019-03-22T16:23:45.725Z,8.20
2019-03-22T16:26:15.123Z,7.90
2019-03-22T16:28:44.519Z,7.67
2019-03-22T16:31:13.905Z,8.57
2019-03-22T16:33:43.382Z,9.13
2019-03-22T16:36:12.768Z,8.43
2019-03-22T16:38:42.156Z,8.37
2019-03-22T16:41:13.219Z,7.60
2019-03-22T16:43:42.643Z,7.87
2019-03-22T16:46:14.194Z,8.67
2019-03-22T16:48:43.786Z,7.30
2019-03-22T16:51:13.179Z,8.27
2019-03-22T16:53:42.567Z,8.17
2019-03-22T16:56:11.972Z,7.80
2019-03-22T16:58:41.533Z,7.73
2019-03-22T17:01:11.014Z,7.67
2019-03-22T17:03:40.538Z,8.33
2019-03-22T17:06:10.004Z,7.90
2019-03-22T17:08:39.485Z,8.10
2019-03-22T17:11:08.887Z,8.17
2019-03-22T17:13:38.268Z,8.77
2019-03-22T17:16:09.218Z,7.97
2019-03-22T17:18:38.685Z,7.63
2019-03-22T17:21:08.152Z,7.73
2019-03-22T17:23:37.588Z,7.83
2019-03-22T17:26:06.992Z,7.70
2019-03-22T17:28:36.428Z,7.40
2019-03-22T17:31:05.849Z,8.17
2019-03-22T17:33:35.256Z,7.23
2019-03-22T17:36:06.115Z,7.87
2019-03-22T17:38:38.296Z,7.17
2019-03-22T17:41:07.689Z,10.47
2019-03-22T17:43:37.145Z,13.73
2019-03-22T17:46:06.557Z,14.37
2019-03-22T17:48:35.961Z,25.43
2019-03-22T17:51:05.322Z,11.20
2019-03-22T17:53:34.721Z,8.63
2019-03-22T17:56:04.359Z,8.63
2019-03-22T17:58:33.756Z,9.87
2019-03-22T18:01:03.130Z,8.20
2019-03-22T18:03:32.506Z,16.43
2019-03-22T18:06:03.522Z,31.77
2019-03-22T18:08:34.463Z,20.80
2019-03-22T18:11:03.927Z,8.57
2019-03-22T18:13:33.306Z,8.07
2019-03-22T18:16:02.675Z,7.57
2019-03-22T18:18:33.339Z,7.63
2019-03-22T18:21:02.716Z,7.53
2019-03-22T18:23:35.973Z,13.17
2019-03-22T18:26:03.179Z,13.37
2019-03-22T18:28:32.590Z,10.27
2019-03-22T18:31:01.991Z,10.10
2019-03-22T18:33:31.319Z,8.60
2019-03-22T18:36:00.719Z,9.20
2019-03-22T18:38:30.126Z,9.80
2019-03-22T18:40:59.520Z,10.47
2019-03-22T18:43:28.894Z,9.87
2019-03-22T18:45:58.667Z,11.80
2019-03-22T18:48:28.136Z,9.73
2019-03-22T18:50:58.819Z,9.67
2019-03-22T18:53:28.266Z,16.73
2019-03-22T18:55:57.658Z,33.20
2019-03-22T18:58:26.980Z,10.63
2019-03-22T19:00:56.364Z,11.20
2019-03-22T19:03:25.759Z,11.17
2019-03-22T19:05:55.164Z,10.63
2019-03-22T19:08:24.863Z,15.10
2019-03-22T19:10:54.236Z,12.43
2019-03-22T19:13:30.662Z,11.93
2019-03-22T19:15:54.819Z,12.47
2019-03-22T19:18:24.231Z,14.93
2019-03-22T19:20:53.615Z,11.80
2019-03-22T19:23:23.009Z,12.67
2019-03-22T19:25:52.392Z,11.23
2019-03-22T19:28:21.815Z,9.70
2019-03-22T19:30:51.176Z,9.97
2019-03-22T19:33:20.548Z,10.33
2019-03-22T19:35:50.053Z,10.73
2019-03-22T19:38:19.444Z,11.23
2019-03-22T19:40:48.920Z,10.67
2019-03-22T19:43:18.380Z,10.53
2019-03-22T19:45:47.860Z,10.17
2019-03-22T19:48:17.221Z,10.23
2019-03-22T19:50:46.636Z,12.83
2019-03-22T19:53:16.000Z,13.67
2019-03-22T19:55:45.402Z,11.23
2019-03-22T19:58:14.822Z,10.80
2019-03-22T20:00:44.202Z,11.10
2019-03-22T20:03:13.604Z,10.33
2019-03-22T20:05:43.122Z,10.50
2019-03-22T20:08:13.885Z,8.50
2019-03-22T20:10:43.421Z,8.93
2019-03-22T20:13:12.755Z,9.67
2019-03-22T20:15:42.355Z,9.37
2019-03-22T20:18:11.748Z,9.50
2019-03-22T20:20:41.201Z,9.13
2019-03-22T20:23:10.578Z,8.87
2019-03-22T20:25:40.037Z,14.70
2019-03-22T20:28:09.468Z,8.77
2019-03-22T20:30:38.887Z,8.20
2019-03-22T20:33:08.331Z,19.27
2019-03-22T20:35:37.756Z,8.40
2019-03-22T20:38:08.199Z,8.43
2019-03-22T20:40:37.615Z,9.03
2019-03-22T20:43:07.007Z,9.83
2019-03-22T20:45:36.380Z,9.47
2019-03-22T20:48:05.868Z,9.27
2019-03-22T20:50:36.196Z,8.80
2019-03-22T20:53:05.798Z,9.40
2019-03-22T20:55:35.172Z,9.57
2019-03-22T20:58:04.556Z,9.27
2019-03-22T21:00:33.879Z,9.00
2019-03-22T21:03:03.272Z,10.37
2019-03-22T21:05:32.656Z,9.53
2019-03-22T21:08:02.060Z,8.90
2019-03-22T21:10:31.552Z,9.20
2019-03-22T21:13:00.952Z,8.93
2019-03-22T21:15:30.354Z,8.73
2019-03-22T21:17:59.801Z,10.70
2019-03-22T21:20:29.196Z,19.77
2019-03-22T21:22:58.561Z,13.30
2019-03-22T21:25:29.597Z,10.63
2019-03-22T21:28:03.962Z,9.07
2019-03-22T21:30:33.513Z,9.60
2019-03-22T21:33:02.818Z,8.67
2019-03-22T21:35:37.162Z,8.97
2019-03-22T21:38:10.775Z,9.43
2019-03-22T21:40:34.512Z,8.83
2019-03-22T21:43:03.971Z,9.07
2019-03-22T21:45:33.573Z,9.23
2019-03-22T21:48:03.121Z,9.07
2019-03-22T21:50:32.577Z,8.77
2019-03-22T21:53:01.951Z,9.60
2019-03-22T21:55:31.335Z,8.73
2019-03-22T21:58:00.776Z,9.10
2019-03-22T22:00:30.267Z,9.00
2019-03-22T22:02:59.627Z,8.57
2019-03-22T22:05:29.022Z,9.90
2019-03-22T22:07:58.468Z,9.93
2019-03-22T22:10:27.830Z,9.30
2019-03-22T22:12:57.226Z,9.47
2019-03-22T22:15:26.604Z,9.07
2019-03-22T22:17:56.023Z,8.60
2019-03-22T22:20:29.235Z,9.47
2019-03-22T22:22:58.749Z,9.63
2019-03-22T22:25:27.709Z,17.00
2019-03-22T22:27:57.132Z,10.40
2019-03-22T22:30:26.518Z,14.33
2019-03-22T22:32:55.933Z,10.47
2019-03-22T22:35:25.319Z,10.30
2019-03-22T22:37:54.701Z,9.60
2019-03-22T22:40:24.027Z,9.13
2019-03-22T22:42:53.386Z,9.40
2019-03-22T22:45:22.811Z,9.67
2019-03-22T22:47:52.192Z,9.43
2019-03-22T22:50:21.567Z,9.17
2019-03-22T22:52:50.964Z,9.20
2019-03-22T22:55:20.333Z,4.80
2019-03-22T22:57:49.712Z,5.47
2019-03-22T23:00:19.109Z,8.33
2019-03-22T23:02:48.477Z,8.67
2019-03-22T23:05:17.873Z,7.13
2019-03-22T23:07:47.253Z,9.07
2019-03-22T23:10:16.625Z,8.33
2019-03-22T23:12:46.005Z,8.27
2019-03-22T23:15:15.445Z,8.80
2019-03-22T23:17:44.842Z,7.90
2019-03-22T23:20:14.333Z,9.90
2019-03-22T23:22:43.721Z,9.73
2019-03-22T23:25:13.224Z,8.80
2019-03-22T23:27:42.600Z,8.83
2019-03-22T23:30:12.929Z,8.60
2019-03-22T23:32:43.972Z,8.63
2019-03-22T23:35:13.495Z,8.97
2019-03-22T23:37:42.879Z,8.00
2019-03-22T23:40:12.411Z,7.03
2019-03-22T23:42:41.776Z,7.33
2019-03-22T23:45:11.745Z,6.80
2019-03-22T23:47:41.105Z,7.70
2019-03-22T23:50:10.750Z,7.13
2019-03-22T23:52:41.661Z,8.13
2019-03-22T23:55:11.095Z,7.13
2019-03-22T23:57:40.473Z,7.97
